Time;durP1;ratioP1;P1;durP2;ratioP2;P2;SDS_P1;SDS_P2;PMS_P1;PMS_P2;Temp;Humidity;BMP_temperature;BMP_pressure;BME280_temperature;BME280_humidity;BME280_pressure;Samples;Min_cycle;Max_cycle;Signal;HPM_P1;HPM_P2
2024/03/12 00:00:33;;;;;;;55.67;33.33;;;;;;;;;;5076720;28;20055;-76
2024/03/12 00:02:59;;;;;;;56.83;34.42;;;;;;;;;;5062578;28;20084;-76
2024/03/12 00:05:26;;;;;;;55.63;33.25;;;;;;;;;;5084749;28;20044;-76
2024/03/12 00:07:52;;;;;;;60.38;34.72;;;;;;;;;;5061364;28;20071;-76
2024/03/12 00:10:21;;;;;;;56.80;33.38;;;;;;;;;;5084569;28;20110;-75
2024/03/12 00:12:54;;;;;;;56.05;32.83;;;;;;;;;;5080167;28;20044;-76
2024/03/12 00:15:24;;;;;;;59.95;34.58;;;;;;;;;;5080718;28;20083;-76
2024/03/12 00:17:51;;;;;;;57.03;35.13;;;;;;;;;;5080039;28;20055;-76
2024/03/12 00:20:18;;;;;;;54.75;33.47;;;;;;;;;;5076745;28;20139;-76
2024/03/12 00:22:47;;;;;;;60.03;34.85;;;;;;;;;;5083801;28;20055;-76
2024/03/12 00:25:14;;;;;;;;;;;;;;;;;;5079267;28;20048;-76
2024/03/12 00:27:40;;;;;;;59.55;34.88;;;;;;;;;;5086550;28;19932;-75
2024/03/12 00:30:10;;;;;;;65.25;35.80;;;;;;;;;;5070783;28;20506;-76
2024/03/12 00:32:38;;;;;;;64.15;36.15;;;;;;;;;;5079036;28;20056;-76
2024/03/12 00:35:05;;;;;;;63.75;35.63;;;;;;;;;;5085053;28;20528;-76
2024/03/12 00:37:32;;;;;;;63.97;35.83;;;;;;;;;;5080052;28;20060;-76
2024/03/12 00:39:59;;;;;;;65.82;35.25;;;;;;;;;;5082914;28;20054;-75
2024/03/12 00:42:26;;;;;;;64.18;36.67;;;;;;;;;;5062591;28;20098;-76
2024/03/12 00:44:52;;;;;;;65.40;35.17;;;;;;;;;;5077842;28;20052;-76
2024/03/12 00:47:21;;;;;;;61.00;34.88;;;;;;;;;;5080995;28;20059;-76
2024/03/12 00:49:48;;;;;;;65.90;35.33;;;;;;;;;;5085615;28;20064;-77
2024/03/12 00:52:17;;;;;;;65.55;34.65;;;;;;;;;;5085608;28;20056;-75
2024/03/12 00:54:46;;;;;;;72.53;37.10;;;;;;;;;;5059826;28;20672;-75
2024/03/12 00:57:13;;;;;;;72.50;37.15;;;;;;;;;;5069178;28;20117;-75
2024/03/12 00:59:41;;;;;;;85.70;40.05;;;;;;;;;;5045422;28;20126;-75
2024/03/12 01:02:10;;;;;;;75.55;37.53;;;;;;;;;;5076635;28;20045;-75
2024/03/12 01:04:38;;;;;;;77.18;37.97;;;;;;;;;;5063227;28;20106;-76
2024/03/12 01:07:07;;;;;;;78.85;37.38;;;;;;;;;;5064654;28;20695;-75
2024/03/12 01:09:39;;;;;;;;;;;;;;;;;;5080077;28;20131;-75
2024/03/12 01:12:07;;;;;;;89.78;37.75;;;;;;;;;;5070025;28;20801;-76
2024/03/12 01:14:34;;;;;;;75.15;35.90;;;;;;;;;;5082793;28;20110;-75
2024/03/12 01:17:05;;;;;;;84.13;37.10;;;;;;;;;;5072613;28;20048;-74
2024/03/12 01:19:31;;;;;;;;;;;;;;;;;;5086765;28;20040;-76
2024/03/12 01:21:57;;;;;;;84.28;37.10;;;;;;;;;;5071884;28;19924;-76
2024/03/12 01:24:26;;;;;;;80.07;37.97;;;;;;;;;;5056109;28;20606;-76
2024/03/12 01:26:53;;;;;;;74.47;34.72;;;;;;;;;;5069688;28;20139;-76
2024/03/12 01:29:19;;;;;;;77.43;35.90;;;;;;;;;;5080478;28;20058;-77
2024/03/12 01:31:47;;;;;;;72.93;35.97;;;;;;;;;;5073530;28;20089;-76
2024/03/12 01:34:13;;;;;;;73.03;36.90;;;;;;;;;;5065091;28;20052;-76
2024/03/12 01:36:42;;;;;;;80.07;37.60;;;;;;;;;;5087778;28;20412;-76
2024/03/12 01:39:09;;;;;;;76.25;36.90;;;;;;;;;;5064746;28;20044;-77
2024/03/12 01:41:41;;;;;;;68.05;36.08;;;;;;;;;;5060977;28;20044;-75
2024/03/12 01:44:08;;;;;;;76.05;36.28;;;;;;;;;;5073126;28;20478;-77
2024/03/12 01:46:35;;;;;;;73.85;36.72;;;;;;;;;;5064084;28;20436;-77
2024/03/12 01:49:04;;;;;;;77.53;35.30;;;;;;;;;;5086330;28;20070;-76
2024/03/12 01:51:31;;;;;;;71.80;34.85;;;;;;;;;;5087268;28;20048;-76
2024/03/12 01:53:58;;;;;;;69.18;35.47;;;;;;;;;;5079318;28;20055;-76
2024/03/12 01:56:24;;;;;;;75.00;36.63;;;;;;;;;;5065921;28;20048;-76
2024/03/12 01:58:51;;;;;;;77.20;37.13;;;;;;;;;;5067142;28;20495;-76
2024/03/12 02:01:20;;;;;;;83.85;36.63;;;;;;;;;;5077525;28;20063;-75
2024/03/12 02:03:48;;;;;;;79.50;35.45;;;;;;;;;;5063876;28;20055;-76
2024/03/12 02:06:15;;;;;;;84.07;35.83;;;;;;;;;;5079126;28;20052;-76
2024/03/12 02:08:41;;;;;;;92.28;38.65;;;;;;;;;;5082875;28;20142;-76
2024/03/12 02:11:07;;;;;;;89.25;37.33;;;;;;;;;;5058797;28;20047;-76
2024/03/12 02:13:34;;;;;;;87.72;36.67;;;;;;;;;;5079949;28;20048;-75
2024/03/12 02:16:00;;;;;;;89.68;36.47;;;;;;;;;;5077962;28;20058;-75
2024/03/12 02:18:27;;;;;;;86.40;38.78;;;;;;;;;;5065686;28;20055;-75
2024/03/12 02:20:53;;;;;;;94.28;38.85;;;;;;;;;;5084694;28;20048;-75
2024/03/12 02:23:27;;;;;;;87.20;37.15;;;;;;;;;;5068984;28;20084;-75
2024/03/12 02:25:53;;;;;;;83.13;36.78;;;;;;;;;;5073319;28;20133;-75
2024/03/12 02:28:19;;;;;;;79.13;35.90;;;;;;;;;;5066506;28;20060;-75
2024/03/12 02:30:46;;;;;;;74.07;35.75;;;;;;;;;;5069142;28;20056;-75
2024/03/12 02:33:14;;;;;;;80.03;36.63;;;;;;;;;;5062882;28;20131;-75
2024/03/12 02:35:40;;;;;;;82.80;34.43;;;;;;;;;;5082875;28;20048;-75
2024/03/12 02:38:08;;;;;;;71.75;34.80;;;;;;;;;;5081288;28;20105;-75
2024/03/12 02:40:35;;;;;;;80.57;34.70;;;;;;;;;;5064052;28;20048;-75
2024/03/12 02:43:02;;;;;;;81.53;35.20;;;;;;;;;;5066205;28;20472;-76
2024/03/12 02:45:28;;;;;;;83.65;35.15;;;;;;;;;;5075133;28;20053;-76
2024/03/12 02:47:55;;;;;;;69.47;33.55;;;;;;;;;;5071520;28;20040;-76
2024/03/12 02:50:21;;;;;;;71.57;35.13;;;;;;;;;;5072376;28;20052;-76
2024/03/12 02:52:48;;;;;;;72.20;32.85;;;;;;;;;;5066922;28;20075;-76
2024/03/12 02:55:14;;;;;;;57.50;31.80;;;;;;;;;;5078536;28;20098;-76
2024/03/12 02:57:41;;;;;;;67.60;31.77;;;;;;;;;;5092440;28;20464;-76
2024/03/12 03:00:14;;;;;;;74.70;33.47;;;;;;;;;;5095233;28;20091;-76
2024/03/12 03:02:42;;;;;;;67.65;32.45;;;;;;;;;;5074869;28;20051;-76
2024/03/12 03:05:11;;;;;;;63.28;32.67;;;;;;;;;;5063121;28;20094;-76
2024/03/12 03:07:40;;;;;;;62.60;33.33;;;;;;;;;;5053889;28;20675;-75
2024/03/12 03:10:07;;;;;;;58.08;32.67;;;;;;;;;;5061187;28;20129;-75
2024/03/12 03:12:33;;;;;;;63.75;30.55;;;;;;;;;;5075326;28;20051;-75
2024/03/12 03:15:00;;;;;;;64.25;31.13;;;;;;;;;;5068557;28;20043;-76
2024/03/12 03:17:26;;;;;;;58.97;31.10;;;;;;;;;;5086647;28;20308;-76
2024/03/12 03:19:52;;;;;;;62.95;32.17;;;;;;;;;;5070123;28;20063;-76
2024/03/12 03:22:19;;;;;;;59.17;32.10;;;;;;;;;;5075715;28;20441;-75
2024/03/12 03:24:45;;;;;;;54.95;31.35;;;;;;;;;;5071129;28;20135;-76
2024/03/12 03:27:12;;;;;;;64.80;31.00;;;;;;;;;;5086910;28;20135;-76
2024/03/12 03:29:38;;;;;;;59.75;32.50;;;;;;;;;;5086926;28;20691;-76
2024/03/12 03:32:06;;;;;;;56.17;30.05;;;;;;;;;;5064261;28;20615;-75
2024/03/12 03:34:37;;;;;;;51.85;29.67;;;;;;;;;;5083430;28;20056;-77
2024/03/12 03:37:04;;;;;;;61.70;30.85;;;;;;;;;;5081519;28;20056;-78
2024/03/12 03:39:34;;;;;;;56.67;28.10;;;;;;;;;;5061562;28;20059;-77
2024/03/12 03:42:02;;;;;;;56.67;29.27;;;;;;;;;;5085654;28;20051;-77
2024/03/12 03:44:29;;;;;;;57.03;28.88;;;;;;;;;;5063255;28;20091;-77
2024/03/12 03:46:56;;;;;;;53.03;26.95;;;;;;;;;;5068113;28;20040;-77
2024/03/12 03:49:22;;;;;;;46.78;25.60;;;;;;;;;;5076930;28;20036;-77
2024/03/12 03:51:50;;;;;;;45.53;24.70;;;;;;;;;;5091793;28;20062;-77
2024/03/12 03:54:17;;;;;;;49.88;26.38;;;;;;;;;;5078121;28;20094;-77
2024/03/12 03:56:45;;;;;;;55.95;26.52;;;;;;;;;;5071256;28;20076;-77
2024/03/12 03:59:15;;;;;;;50.40;25.63;;;;;;;;;;5067760;28;20663;-77
2024/03/12 04:01:42;;;;;;;48.10;25.10;;;;;;;;;;5070232;28;20052;-77
2024/03/12 04:04:14;;;;;;;43.65;25.17;;;;;;;;;;5082563;28;20138;-77
2024/03/12 04:06:43;;;;;;;41.25;23.15;;;;;;;;;;5071086;28;20079;-76
2024/03/12 04:09:11;;;;;;;42.67;23.10;;;;;;;;;;5074095;28;20117;-77
2024/03/12 04:11:38;;;;;;;45.00;23.15;;;;;;;;;;5086243;28;20048;-77
2024/03/12 04:14:04;;;;;;;40.20;23.13;;;;;;;;;;5076198;28;20044;-78
2024/03/12 04:16:31;;;;;;;40.85;22.40;;;;;;;;;;5082767;28;20114;-77
2024/03/12 04:19:00;;;;;;;40.53;23.20;;;;;;;;;;5073951;28;20044;-77
2024/03/12 04:21:27;;;;;;;45.50;24.55;;;;;;;;;;5069115;28;20048;-77
2024/03/12 04:23:54;;;;;;;39.58;22.45;;;;;;;;;;5084477;28;20044;-77
2024/03/12 04:26:20;;;;;;;43.55;23.83;;;;;;;;;;5077351;28;20083;-78
2024/03/12 04:28:47;;;;;;;37.85;23.02;;;;;;;;;;5082295;28;20051;-77
2024/03/12 04:31:13;;;;;;;38.90;21.40;;;;;;;;;;5060462;28;20067;-77
2024/03/12 04:33:40;;;;;;;36.60;20.92;;;;;;;;;;5064897;28;20131;-77
2024/03/12 04:36:07;;;;;;;43.67;21.67;;;;;;;;;;5063464;28;20060;-77
2024/03/12 04:38:33;;;;;;;42.35;20.63;;;;;;;;;;5085730;28;20056;-78
2024/03/12 04:41:00;;;;;;;44.97;21.10;;;;;;;;;;5086823;28;20048;-78
2024/03/12 04:43:27;;;;;;;35.97;21.00;;;;;;;;;;5076273;28;20317;-77
2024/03/12 04:45:53;;;;;;;36.63;21.10;;;;;;;;;;5082332;28;20048;-75
2024/03/12 04:48:21;;;;;;;35.35;20.75;;;;;;;;;;5075310;28;20044;-75
2024/03/12 04:50:48;;;;;;;40.70;21.63;;;;;;;;;;5078090;28;20048;-76
2024/03/12 04:53:15;;;;;;;39.08;20.20;;;;;;;;;;5080101;28;20134;-75
2024/03/12 04:55:43;;;;;;;38.67;20.27;;;;;;;;;;5067133;28;20131;-76
2024/03/12 04:58:09;;;;;;;36.97;18.48;;;;;;;;;;5090557;28;20530;-76
2024/03/12 05:00:36;;;;;;;35.38;19.38;;;;;;;;;;5076471;28;20059;-76
2024/03/12 05:03:02;;;;;;;36.38;18.77;;;;;;;;;;5087173;28;20455;-76
2024/03/12 05:05:29;;;;;;;44.70;23.25;;;;;;;;;;5066173;28;20044;-76
2024/03/12 05:07:55;;;;;;;38.70;19.95;;;;;;;;;;5089793;28;20071;-75
2024/03/12 05:10:22;;;;;;;37.05;20.23;;;;;;;;;;5068935;28;20651;-75
2024/03/12 05:12:50;;;;;;;35.70;19.50;;;;;;;;;;5083467;28;20093;-74
2024/03/12 05:15:17;;;;;;;40.88;20.10;;;;;;;;;;5091872;28;20524;-75
2024/03/12 05:17:48;;;;;;;39.55;18.63;;;;;;;;;;5064542;28;20473;-75
2024/03/12 05:20:17;;;;;;;33.13;18.77;;;;;;;;;;5083170;28;20048;-75
2024/03/12 05:22:44;;;;;;;42.60;19.98;;;;;;;;;;5077238;28;20041;-75
2024/03/12 05:25:19;;;;;;;28.40;16.70;;;;;;;;;;5084240;28;20044;-74
2024/03/12 05:27:47;;;;;;;32.67;16.85;;;;;;;;;;5067994;28;20062;-75
2024/03/12 05:30:20;;;;;;;35.80;16.23;;;;;;;;;;5075416;28;20044;-76
2024/03/12 05:32:49;;;;;;;32.70;18.25;;;;;;;;;;5065723;28;20681;-76
2024/03/12 05:35:18;;;;;;;34.30;17.15;;;;;;;;;;5075328;28;20052;-75
2024/03/12 05:38:01;;;;;;;33.53;16.95;;;;;;;;;;5078127;28;20064;-76
2024/03/12 05:40:46;;;;;;;33.00;16.77;;;;;;;;;;5060680;28;20052;-75
2024/03/12 05:48:43;;;;;;;41.65;19.83;;;;;;;;;;5086268;28;20046;-76
2024/03/12 05:51:09;;;;;;;38.15;18.70;;;;;;;;;;5068705;28;20050;-75
2024/03/12 05:53:37;;;;;;;43.85;20.05;;;;;;;;;;5045625;28;20400;-75
2024/03/12 05:56:07;;;;;;;42.72;19.02;;;;;;;;;;5080984;28;20142;-76
2024/03/12 05:58:34;;;;;;;46.60;21.08;;;;;;;;;;5078484;28;20585;-76
2024/03/12 06:01:00;;;;;;;48.58;21.75;;;;;;;;;;5087863;28;20075;-76
2024/03/12 06:03:27;;;;;;;54.85;22.65;;;;;;;;;;5084116;28;21107;-77
2024/03/12 06:05:54;;;;;;;54.08;22.48;;;;;;;;;;5087835;28;20040;-77
2024/03/12 06:08:21;;;;;;;59.33;23.20;;;;;;;;;;5086536;28;20143;-77
2024/03/12 06:10:54;;;;;;;47.47;21.83;;;;;;;;;;5077877;28;20044;-77
2024/03/12 06:13:22;;;;;;;53.47;22.13;;;;;;;;;;5079435;28;20277;-76
2024/03/12 06:15:49;;;;;;;61.03;22.52;;;;;;;;;;5061708;28;20396;-76
2024/03/12 06:18:18;;;;;;;55.88;22.42;;;;;;;;;;5085720;28;20131;-75
2024/03/12 06:20:46;;;;;;;62.17;22.83;;;;;;;;;;5079826;28;20622;-75
2024/03/12 06:23:18;;;;;;;62.10;22.33;;;;;;;;;;5068176;28;20056;-75
2024/03/12 06:25:44;;;;;;;57.17;22.55;;;;;;;;;;5081679;28;20131;-75
2024/03/12 06:28:11;;;;;;;47.40;19.17;;;;;;;;;;5080610;28;20042;-74
2024/03/12 06:30:38;;;;;;;62.15;22.42;;;;;;;;;;5087416;28;20048;-74
2024/03/12 06:33:08;;;;;;;58.55;23.42;;;;;;;;;;5074735;28;20041;-75
2024/03/12 06:35:35;;;;;;;56.05;22.15;;;;;;;;;;5055688;28;20040;-76
2024/03/12 06:38:04;;;;;;;48.83;20.48;;;;;;;;;;5059256;28;20126;-75
2024/03/12 06:40:31;;;;;;;62.25;23.05;;;;;;;;;;5079242;28;20530;-75
2024/03/12 06:43:00;;;;;;;51.72;22.27;;;;;;;;;;5073712;28;20072;-75
2024/03/12 06:45:27;;;;;;;49.22;21.33;;;;;;;;;;5073764;28;20538;-75
2024/03/12 06:47:55;;;;;;;50.63;22.27;;;;;;;;;;5084881;28;20047;-75
2024/03/12 06:50:25;;;;;;;;;;;;;;;;;;5066283;28;20127;-75
2024/03/12 06:52:55;;;;;;;45.58;19.33;;;;;;;;;;5080179;28;19942;-74
2024/03/12 06:55:25;;;;;;;47.78;20.08;;;;;;;;;;5072668;28;20139;-75
2024/03/12 06:57:52;;;;;;;52.58;22.40;;;;;;;;;;5079026;28;20040;-75
2024/03/12 07:00:37;;;;;;;53.20;20.58;;;;;;;;;;5084734;28;20099;-75
2024/03/12 07:03:04;;;;;;;52.17;20.23;;;;;;;;;;5057298;28;20044;-75
2024/03/12 07:05:33;;;;;;;39.80;18.27;;;;;;;;;;5084564;28;20070;-78
2024/03/12 07:08:00;;;;;;;;;;;;;;;;;;5061159;28;20051;-77
2024/03/12 07:10:26;;;;;;;45.25;19.25;;;;;;;;;;5085697;28;19920;-78
2024/03/12 07:12:55;;;;;;;46.92;19.95;;;;;;;;;;5084825;28;20044;-78
2024/03/12 07:15:21;;;;;;;43.97;19.75;;;;;;;;;;5077413;28;20135;-76
2024/03/12 07:17:47;;;;;;;47.17;19.30;;;;;;;;;;5068295;28;20091;-77
2024/03/12 07:20:20;;;;;;;48.75;19.27;;;;;;;;;;5074707;28;20480;-78
2024/03/12 07:22:46;;;;;;;52.40;20.77;;;;;;;;;;5078040;28;20079;-77
2024/03/12 07:25:13;;;;;;;39.35;18.15;;;;;;;;;;5077537;28;20044;-77
2024/03/12 07:27:40;;;;;;;46.22;19.33;;;;;;;;;;5069312;28;20109;-77
2024/03/12 07:30:09;;;;;;;40.38;18.92;;;;;;;;;;5080506;28;20048;-77
2024/03/12 07:32:35;;;;;;;42.85;18.98;;;;;;;;;;5053964;28;20050;-78
2024/03/12 07:35:02;;;;;;;38.03;18.25;;;;;;;;;;5057066;28;20052;-77
2024/03/12 07:37:29;;;;;;;45.35;18.88;;;;;;;;;;5072868;28;20068;-77
2024/03/12 07:39:56;;;;;;;41.65;17.60;;;;;;;;;;5077402;28;20052;-78
2024/03/12 07:42:23;;;;;;;42.97;18.38;;;;;;;;;;5065022;28;20056;-77
2024/03/12 07:44:49;;;;;;;43.30;18.13;;;;;;;;;;5078558;28;20480;-77
2024/03/12 07:47:16;;;;;;;47.55;20.15;;;;;;;;;;5065705;28;20052;-78
2024/03/12 07:49:42;;;;;;;39.30;18.17;;;;;;;;;;5078393;28;20082;-77
2024/03/12 07:52:12;;;;;;;45.10;18.52;;;;;;;;;;5086695;28;20127;-79
2024/03/12 07:54:39;;;;;;;43.45;17.48;;;;;;;;;;5058631;28;20044;-78
2024/03/12 07:57:07;;;;;;;40.83;17.80;;;;;;;;;;5082867;28;20036;-78
2024/03/12 07:59:34;;;;;;;42.27;18.47;;;;;;;;;;5077994;28;20560;-78
2024/03/12 08:02:11;;;;;;;40.33;19.15;;;;;;;;;;5067260;28;20441;-78
2024/03/12 08:04:42;;;;;;;45.28;18.70;;;;;;;;;;5085101;28;20104;-76
2024/03/12 08:07:12;;;;;;;40.65;18.48;;;;;;;;;;5073087;28;20239;-78
2024/03/12 08:09:38;;;;;;;43.80;19.88;;;;;;;;;;5073279;28;20375;-77
2024/03/12 08:12:07;;;;;;;43.55;18.85;;;;;;;;;;5080607;28;20040;-78
2024/03/12 08:14:35;;;;;;;48.78;20.17;;;;;;;;;;5082508;28;20055;-78
2024/03/12 08:17:04;;;;;;;41.47;19.03;;;;;;;;;;5060340;28;20056;-75
2024/03/12 08:19:31;;;;;;;50.08;19.45;;;;;;;;;;5077092;28;20404;-74
2024/03/12 08:21:58;;;;;;;38.78;18.08;;;;;;;;;;5086306;28;20480;-75
2024/03/12 08:24:26;;;;;;;42.65;19.15;;;;;;;;;;5064678;28;20056;-75
2024/03/12 08:26:52;;;;;;;46.00;18.00;;;;;;;;;;5077571;28;20058;-75
2024/03/12 08:29:19;;;;;;;43.65;19.02;;;;;;;;;;5071177;28;20321;-74
2024/03/12 08:31:45;;;;;;;40.33;18.65;;;;;;;;;;5082704;28;20469;-75
2024/03/12 08:34:25;;;;;;;42.78;17.63;;;;;;;;;;5087110;28;20052;-75
2024/03/12 08:36:51;;;;;;;45.42;18.33;;;;;;;;;;5072596;28;20043;-75
2024/03/12 08:39:18;;;;;;;40.78;18.17;;;;;;;;;;5090363;28;20102;-75
2024/03/12 08:41:44;;;;;;;40.72;17.63;;;;;;;;;;5082892;28;20097;-75
2024/03/12 08:44:13;;;;;;;44.97;19.05;;;;;;;;;;5086332;28;20047;-77
2024/03/12 08:46:41;;;;;;;40.28;18.88;;;;;;;;;;5065228;28;20066;-75
2024/03/12 08:49:10;;;;;;;46.58;19.02;;;;;;;;;;5078437;28;20143;-76
2024/03/12 08:51:41;;;;;;;36.42;18.40;;;;;;;;;;5090420;28;20547;-77
2024/03/12 08:54:11;;;;;;;42.25;18.73;;;;;;;;;;5089634;28;20461;-76
2024/03/12 08:56:39;;;;;;;43.85;20.38;;;;;;;;;;5094108;28;20542;-75
2024/03/12 08:59:05;;;;;;;40.25;21.05;;;;;;;;;;5088616;28;20043;-75
2024/03/12 09:01:32;;;;;;;44.70;19.80;;;;;;;;;;5092283;28;20133;-75
2024/03/12 09:03:59;;;;;;;43.13;19.23;;;;;;;;;;5063905;28;20135;-75
2024/03/12 09:06:26;;;;;;;46.60;19.15;;;;;;;;;;5061040;28;20049;-76
2024/03/12 09:08:53;;;;;;;37.95;18.30;;;;;;;;;;5082673;28;20102;-77
2024/03/12 09:11:20;;;;;;;42.83;17.63;;;;;;;;;;5074357;28;20672;-76
2024/03/12 09:13:47;;;;;;;38.72;17.80;;;;;;;;;;5085331;28;20052;-76
2024/03/12 09:16:14;;;;;;;36.25;17.52;;;;;;;;;;5082650;28;20052;-76
2024/03/12 09:18:42;;;;;;;35.58;17.50;;;;;;;;;;5088986;28;20147;-75
2024/03/12 09:21:18;;;;;;;32.85;17.63;;;;;;;;;;5074874;28;20651;-76
2024/03/12 09:23:44;;;;;;;33.03;16.80;;;;;;;;;;5077340;28;20068;-76
2024/03/12 09:26:27;;;;;;;30.65;15.38;;;;;;;;;;5069717;28;20142;-77
2024/03/12 09:28:54;;;;;;;29.23;15.13;;;;;;;;;;5079299;28;20093;-77
2024/03/12 09:31:20;;;;;;;32.55;16.00;;;;;;;;;;5089406;28;20058;-77
2024/03/12 09:33:47;;;;;;;32.97;13.88;;;;;;;;;;5082997;28;20044;-77
2024/03/12 09:36:14;;;;;;;23.80;14.20;;;;;;;;;;5071562;28;20044;-77
2024/03/12 09:38:43;;;;;;;30.33;13.77;;;;;;;;;;5094373;28;20047;-77
2024/03/12 09:41:12;;;;;;;27.20;13.50;;;;;;;;;;5079092;28;20047;-77
2024/03/12 09:43:39;;;;;;;;;;;;;;;;;;5069737;28;20476;-78
2024/03/12 09:46:05;;;;;;;30.73;14.10;;;;;;;;;;5082612;28;19924;-77
2024/03/12 09:48:32;;;;;;;30.60;14.30;;;;;;;;;;5087988;28;20067;-78
2024/03/12 09:50:59;;;;;;;28.55;14.10;;;;;;;;;;5085754;28;20072;-77
2024/03/12 09:53:26;;;;;;;26.63;12.77;;;;;;;;;;5083553;28;20105;-78
2024/03/12 09:55:53;;;;;;;24.25;13.70;;;;;;;;;;5060146;28;20076;-77
2024/03/12 09:58:19;;;;;;;27.25;14.68;;;;;;;;;;5074560;28;20053;-77
2024/03/12 10:00:46;;;;;;;30.95;14.88;;;;;;;;;;5078068;28;20059;-77
2024/03/12 10:03:15;;;;;;;27.13;13.98;;;;;;;;;;5085840;28;20217;-77
2024/03/12 10:05:43;;;;;;;29.63;15.52;;;;;;;;;;5071390;28;20048;-77
2024/03/12 10:08:13;;;;;;;35.53;16.85;;;;;;;;;;5089377;28;20036;-78
2024/03/12 10:10:47;;;;;;;29.05;15.25;;;;;;;;;;5078094;28;20082;-77
2024/03/12 10:13:14;;;;;;;30.95;15.70;;;;;;;;;;5085298;28;20044;-77
2024/03/12 10:16:00;;;;;;;34.65;16.48;;;;;;;;;;5082350;28;20047;-78
2024/03/12 10:18:28;;;;;;;25.67;15.00;;;;;;;;;;5073373;28;20233;-76
2024/03/12 10:20:55;;;;;;;35.30;15.82;;;;;;;;;;5069283;28;20077;-77
2024/03/12 10:23:25;;;;;;;33.80;14.93;;;;;;;;;;5057169;28;20140;-77
2024/03/12 10:25:52;;;;;;;28.42;16.33;;;;;;;;;;5085475;28;20089;-78
2024/03/12 10:28:25;;;;;;;30.52;16.92;;;;;;;;;;5077999;28;20083;-77
2024/03/12 10:30:52;;;;;;;41.92;18.48;;;;;;;;;;5075171;28;20409;-77
2024/03/12 10:33:20;;;;;;;35.65;17.63;;;;;;;;;;5064001;28;20044;-77
2024/03/12 10:35:47;;;;;;;34.13;17.20;;;;;;;;;;5081124;28;20584;-77
2024/03/12 10:38:27;;;;;;;30.02;16.45;;;;;;;;;;5062682;28;20055;-77
2024/03/12 10:40:55;;;;;;;31.90;17.42;;;;;;;;;;5085640;28;20071;-76
2024/03/12 10:43:24;;;;;;;30.45;17.27;;;;;;;;;;5061085;28;20075;-76
2024/03/12 10:45:51;;;;;;;33.00;16.33;;;;;;;;;;5073175;28;20055;-76
2024/03/12 10:48:18;;;;;;;31.55;17.33;;;;;;;;;;5087421;28;20680;-76
2024/03/12 10:50:45;;;;;;;30.80;16.23;;;;;;;;;;5081233;28;20043;-77
2024/03/12 10:53:12;;;;;;;31.52;16.70;;;;;;;;;;5086758;28;20046;-77
2024/03/12 10:55:39;;;;;;;38.05;18.02;;;;;;;;;;5067534;28;20051;-77
2024/03/12 10:58:08;;;;;;;32.90;17.70;;;;;;;;;;5087054;28;20386;-78
2024/03/12 11:00:39;;;;;;;31.95;17.20;;;;;;;;;;5084412;28;20054;-77
2024/03/12 11:03:08;;;;;;;31.02;17.98;;;;;;;;;;5071796;28;20048;-77
2024/03/12 11:05:35;;;;;;;29.52;17.08;;;;;;;;;;5087502;28;20055;-77
2024/03/12 11:08:01;;;;;;;34.50;17.60;;;;;;;;;;5073514;28;20044;-77
2024/03/12 11:10:32;;;;;;;34.88;18.15;;;;;;;;;;5080552;28;20048;-77
2024/03/12 11:12:59;;;;;;;31.95;17.52;;;;;;;;;;5065351;28;20059;-77
2024/03/12 11:15:25;;;;;;;35.72;18.80;;;;;;;;;;5070275;28;20591;-77
2024/03/12 11:17:53;;;;;;;29.15;17.17;;;;;;;;;;5069922;28;20124;-78
2024/03/12 11:20:23;;;;;;;30.17;17.80;;;;;;;;;;5059861;28;20094;-78
2024/03/12 11:22:56;;;;;;;29.90;16.73;;;;;;;;;;5069512;28;20047;-78
2024/03/12 11:25:45;;;;;;;32.28;18.15;;;;;;;;;;5051368;28;20473;-77
2024/03/12 11:28:23;;;;;;;39.28;18.27;;;;;;;;;;5070924;28;20059;-76
2024/03/12 11:30:56;;;;;;;31.33;17.05;;;;;;;;;;5071390;28;20045;-77
2024/03/12 11:33:40;;;;;;;31.70;18.23;;;;;;;;;;5070162;28;20056;-77
2024/03/12 11:36:10;;;;;;;29.75;16.25;;;;;;;;;;5049477;28;20139;-77
2024/03/12 11:38:37;;;;;;;28.88;18.00;;;;;;;;;;5085456;28;20613;-77
2024/03/12 11:41:03;;;;;;;30.88;17.58;;;;;;;;;;5080199;28;20056;-77
2024/03/12 11:43:37;;;;;;;32.85;19.27;;;;;;;;;;5070279;28;20132;-77
2024/03/12 11:46:07;;;;;;;35.50;17.88;;;;;;;;;;5089181;28;20542;-76
2024/03/12 11:48:35;;;;;;;33.90;18.17;;;;;;;;;;5074588;28;20052;-76
2024/03/12 11:51:03;;;;;;;32.92;18.45;;;;;;;;;;5085153;28;20056;-76
2024/03/12 11:53:35;;;;;;;32.13;17.40;;;;;;;;;;5075811;28;20048;-76
2024/03/12 11:56:10;;;;;;;34.42;18.98;;;;;;;;;;5072816;28;20060;-76
2024/03/12 11:58:40;;;;;;;33.50;18.48;;;;;;;;;;5090626;28;20036;-76
2024/03/12 12:01:21;;;;;;;34.13;18.30;;;;;;;;;;5068055;28;20044;-76
2024/03/12 12:03:59;;;;;;;34.22;18.65;;;;;;;;;;5047214;28;20585;-76
2024/03/12 12:06:26;;;;;;;30.43;17.30;;;;;;;;;;5088082;28;20048;-75
2024/03/12 12:08:53;;;;;;;34.60;18.00;;;;;;;;;;5103429;28;20094;-76
2024/03/12 12:11:26;;;;;;;33.53;18.63;;;;;;;;;;5069990;28;20166;-76
2024/03/12 12:13:54;;;;;;;30.98;17.65;;;;;;;;;;5085509;28;20516;-76
2024/03/12 12:16:20;;;;;;;30.85;16.58;;;;;;;;;;5092995;28;20076;-76
2024/03/12 12:18:47;;;;;;;33.90;18.85;;;;;;;;;;5080404;28;20052;-76
2024/03/12 12:21:14;;;;;;;31.77;18.83;;;;;;;;;;5100089;28;20133;-76
2024/03/12 12:23:44;;;;;;;31.33;17.95;;;;;;;;;;5090474;28;20048;-76
2024/03/12 12:26:13;;;;;;;34.53;18.20;;;;;;;;;;5082381;28;20527;-76
2024/03/12 12:28:40;;;;;;;30.30;16.92;;;;;;;;;;5092858;28;20392;-76
2024/03/12 12:31:11;;;;;;;31.77;18.08;;;;;;;;;;5097622;28;20024;-76
2024/03/12 12:33:39;;;;;;;32.03;17.48;;;;;;;;;;5085921;28;20056;-77
2024/03/12 12:36:09;;;;;;;31.65;17.95;;;;;;;;;;5081118;28;20047;-76
2024/03/12 12:38:36;;;;;;;30.55;17.05;;;;;;;;;;5087484;28;20469;-76
2024/03/12 12:41:04;;;;;;;29.15;17.75;;;;;;;;;;5090427;28;20401;-76
2024/03/12 12:43:32;;;;;;;32.17;18.57;;;;;;;;;;5082438;28;20109;-75
2024/03/12 12:45:59;;;;;;;31.60;18.98;;;;;;;;;;5093001;28;20276;-75
2024/03/12 12:48:27;;;;;;;31.33;18.55;;;;;;;;;;5075059;28;20063;-75
2024/03/12 12:51:03;;;;;;;30.05;17.98;;;;;;;;;;5092362;28;20048;-76
2024/03/12 12:53:30;;;;;;;35.65;18.58;;;;;;;;;;5066070;28;20128;-76
2024/03/12 12:55:57;;;;;;;33.88;18.90;;;;;;;;;;5094996;28;20051;-76
2024/03/12 12:58:25;;;;;;;32.17;19.15;;;;;;;;;;5080200;28;20111;-76
2024/03/12 13:01:01;;;;;;;34.17;20.37;;;;;;;;;;5091187;28;20733;-76
2024/03/12 13:03:38;;;;;;;37.45;21.77;;;;;;;;;;5085517;28;20139;-75
2024/03/12 13:06:15;;;;;;;35.60;21.50;;;;;;;;;;5088140;28;20060;-76
2024/03/12 13:08:46;;;;;;;36.92;20.23;;;;;;;;;;5095692;28;20455;-77
2024/03/12 13:11:16;;;;;;;34.95;20.45;;;;;;;;;;5079745;28;20059;-76
2024/03/12 13:13:44;;;;;;;35.25;20.90;;;;;;;;;;5077830;28;20136;-76
2024/03/12 13:16:14;;;;;;;43.10;22.23;;;;;;;;;;5067662;28;20125;-76
2024/03/12 13:18:43;;;;;;;36.72;20.92;;;;;;;;;;5079804;28;20070;-76
2024/03/12 13:21:14;;;;;;;44.45;23.20;;;;;;;;;;5081960;28;20127;-76
2024/03/12 13:23:45;;;;;;;45.20;23.02;;;;;;;;;;5082736;28;20047;-76
2024/03/12 13:26:15;;;;;;;42.28;23.73;;;;;;;;;;5101366;28;20044;-76
2024/03/12 13:28:42;;;;;;;40.78;23.15;;;;;;;;;;5094462;28;20071;-75
2024/03/12 13:31:10;;;;;;;33.92;20.75;;;;;;;;;;5081057;28;20058;-76
2024/03/12 13:33:40;;;;;;;39.25;22.15;;;;;;;;;;5082774;28;20054;-76
2024/03/12 13:36:09;;;;;;;40.38;23.10;;;;;;;;;;5108362;28;20561;-76
2024/03/12 13:38:36;;;;;;;35.00;22.10;;;;;;;;;;5107906;28;20471;-76
2024/03/12 13:41:03;;;;;;;35.75;21.88;;;;;;;;;;5071232;28;20083;-76
2024/03/12 13:43:29;;;;;;;38.05;21.98;;;;;;;;;;5097493;28;20048;-76
2024/03/12 13:45:56;;;;;;;35.72;19.83;;;;;;;;;;5064245;28;20052;-76
2024/03/12 13:48:26;;;;;;;37.75;21.77;;;;;;;;;;5100067;28;20635;-76
2024/03/12 13:50:57;;;;;;;37.20;20.10;;;;;;;;;;5093690;28;20062;-76
2024/03/12 13:53:26;;;;;;;38.08;20.30;;;;;;;;;;5083154;28;20048;-76
2024/03/12 13:55:57;;;;;;;35.97;20.50;;;;;;;;;;5056584;28;20064;-76
2024/03/12 13:58:26;;;;;;;41.97;19.98;;;;;;;;;;5065069;28;20106;-76
2024/03/12 14:00:56;;;;;;;35.50;20.02;;;;;;;;;;5077544;28;20543;-76
2024/03/12 14:03:28;;;;;;;38.47;19.88;;;;;;;;;;5084120;28;20116;-75
2024/03/12 14:05:55;;;;;;;36.10;20.63;;;;;;;;;;5087972;28;20048;-77
2024/03/12 14:08:23;;;;;;;36.77;19.70;;;;;;;;;;5084382;28;20518;-76
2024/03/12 14:10:50;;;;;;;38.13;20.88;;;;;;;;;;5082737;28;20048;-75
2024/03/12 14:13:21;;;;;;;39.70;20.65;;;;;;;;;;5083186;28;20126;-76
2024/03/12 14:15:48;;;;;;;39.10;19.92;;;;;;;;;;5078252;28;20829;-75
2024/03/12 14:18:21;;;;;;;36.53;21.50;;;;;;;;;;5089490;28;20048;-74
2024/03/12 14:20:50;;;;;;;38.55;21.23;;;;;;;;;;5097235;28;20126;-75
2024/03/12 14:23:17;;;;;;;36.28;21.90;;;;;;;;;;5101700;28;20151;-76
2024/03/12 14:25:43;;;;;;;35.65;21.63;;;;;;;;;;5098541;28;20048;-76
2024/03/12 14:28:10;;;;;;;36.35;21.15;;;;;;;;;;5089338;28;20060;-75
2024/03/12 14:30:40;;;;;;;40.72;21.45;;;;;;;;;;5104796;28;20048;-75